createdAt,value
2023-05-28T00:03:20.704Z,16.70
2023-05-28T00:08:24.155Z,17.00
2023-05-28T00:13:31.057Z,17.19
2023-05-28T00:18:34.134Z,17.31
2023-05-28T00:23:36.862Z,17.42
2023-05-28T00:28:39.622Z,17.48
2023-05-28T00:33:42.298Z,17.52
2023-05-28T00:38:44.861Z,17.58
2023-05-28T00:43:47.760Z,17.55
2023-05-28T00:48:52.152Z,17.45
2023-05-28T00:53:55.017Z,17.41
2023-05-28T00:58:57.597Z,17.45
2023-05-28T01:04:01.816Z,17.55
2023-05-28T01:09:04.465Z,17.60
2023-05-28T01:14:08.536Z,17.73
2023-05-28T01:19:11.295Z,17.80
2023-05-28T01:24:17.128Z,17.90
2023-05-28T01:29:20.498Z,18.01
2023-05-28T01:34:24.898Z,18.13
2023-05-28T01:39:32.424Z,18.14
2023-05-28T01:44:35.887Z,18.24
2023-05-28T01:49:40.289Z,18.29
2023-05-28T01:54:45.230Z,18.26
2023-05-28T01:59:47.868Z,18.43
2023-05-28T02:04:50.992Z,18.51
2023-05-28T02:09:53.626Z,18.54
2023-05-28T02:15:14.899Z,18.50
2023-05-28T02:20:19.836Z,18.61
2023-05-28T02:25:24.177Z,18.74
2023-05-28T02:30:27.505Z,18.79
2023-05-28T02:35:30.072Z,18.67
2023-05-28T02:40:33.352Z,18.60
2023-05-28T02:45:36.895Z,18.56
2023-05-28T02:50:39.679Z,18.60
2023-05-28T02:56:20.648Z,18.70
2023-05-28T03:01:24.225Z,18.74
2023-05-28T03:06:27.900Z,18.86
2023-05-28T03:11:31.105Z,18.85
2023-05-28T03:16:34.192Z,19.03
2023-05-28T03:21:37.233Z,19.11
2023-05-28T03:26:40.084Z,19.21
2023-05-28T03:31:48.301Z,19.31
2023-05-28T03:36:55.969Z,19.42
2023-05-28T03:41:59.969Z,19.43
2023-05-28T03:47:05.061Z,19.52
2023-05-28T03:52:08.887Z,19.66
2023-05-28T03:57:22.642Z,19.75
2023-05-28T04:02:25.698Z,19.79
2023-05-28T04:07:28.537Z,19.87
2023-05-28T04:12:31.219Z,20.03
2023-05-28T04:17:34.050Z,20.12
2023-05-28T04:22:36.714Z,20.27
2023-05-28T04:27:42.271Z,20.44
2023-05-28T04:32:44.962Z,20.58
2023-05-28T04:37:52.400Z,20.87
2023-05-28T04:42:56.919Z,21.02
2023-05-28T04:48:02.804Z,20.97
2023-05-28T04:53:05.840Z,21.30
2023-05-28T04:58:09.831Z,21.64
2023-05-28T05:03:13.045Z,21.75
2023-05-28T05:08:15.820Z,21.95
2023-05-28T05:13:22.100Z,21.98
2023-05-28T05:18:24.915Z,22.11
2023-05-28T05:23:28.172Z,22.27
2023-05-28T05:28:30.794Z,22.21
2023-05-28T05:33:33.565Z,22.26
2023-05-28T05:39:16.363Z,22.16
2023-05-28T05:44:34.519Z,22.40
2023-05-28T05:49:37.036Z,22.58
2023-05-28T05:54:39.649Z,22.32
2023-05-28T05:59:42.550Z,22.71
2023-05-28T06:04:46.350Z,22.81
2023-05-28T06:10:02.287Z,22.91
2023-05-28T06:15:12.580Z,22.93
2023-05-28T06:20:15.373Z,23.17
2023-05-28T06:25:22.888Z,23.17
2023-05-28T06:30:27.877Z,23.54
2023-05-28T06:35:30.800Z,23.71
2023-05-28T06:40:52.250Z,23.80
2023-05-28T06:45:56.889Z,24.00
2023-05-28T06:51:00.819Z,23.96
2023-05-28T06:56:03.635Z,23.89
2023-05-28T07:01:32.727Z,23.88
2023-05-28T07:06:55.840Z,24.02
2023-05-28T07:12:06.803Z,24.14
2023-05-28T07:17:12.945Z,24.40
2023-05-28T07:22:17.930Z,24.82
2023-05-28T07:27:21.196Z,24.58
2023-05-28T07:32:24.064Z,24.63
2023-05-28T07:37:34.071Z,24.63
2023-05-28T07:42:36.711Z,24.73
2023-05-28T07:47:42.466Z,24.92
2023-05-28T07:53:03.424Z,24.76
2023-05-28T07:58:07.328Z,24.97
2023-05-28T08:03:12.899Z,24.97
2023-05-28T08:08:19.907Z,25.09
2023-05-28T08:13:23.687Z,25.16
2023-05-28T08:18:26.581Z,25.31
2023-05-28T08:23:35.874Z,25.51
2023-05-28T08:28:42.733Z,26.09
2023-05-28T08:33:45.294Z,26.56
2023-05-28T08:39:06.377Z,26.98
2023-05-28T08:44:11.644Z,27.44
2023-05-28T08:49:18.604Z,27.30
2023-05-28T08:54:24.682Z,26.99
2023-05-28T08:59:29.044Z,26.59
2023-05-28T09:04:31.674Z,26.51
2023-05-28T09:09:34.673Z,27.06
2023-05-28T09:14:42.373Z,26.81
2023-05-28T09:19:54.391Z,27.19
2023-05-28T09:24:58.260Z,27.16
2023-05-28T09:30:13.419Z,27.40
2023-05-28T09:35:17.489Z,27.60
2023-05-28T09:40:20.212Z,27.85
2023-05-28T09:45:27.369Z,28.17
2023-05-28T09:50:30.552Z,28.58
2023-05-28T09:55:37.030Z,29.19
2023-05-28T10:00:48.824Z,29.76
2023-05-28T10:06:02.874Z,29.88
2023-05-28T10:11:09.763Z,30.16
2023-05-28T10:16:15.463Z,29.97
2023-05-28T10:21:20.917Z,29.97
2023-05-28T10:26:24.860Z,29.54
2023-05-28T10:31:27.528Z,29.79
2023-05-28T10:36:30.207Z,31.07
2023-05-28T10:41:34.716Z,30.40
2023-05-28T10:46:41.533Z,29.21
2023-05-28T10:51:55.913Z,29.01
2023-05-28T10:57:14.525Z,29.40
2023-05-28T11:02:26.135Z,30.54
2023-05-28T11:07:33.960Z,32.93
2023-05-28T11:12:38.421Z,31.93
2023-05-28T11:17:43.115Z,33.74
2023-05-28T11:22:46.442Z,32.75
2023-05-28T11:27:54.452Z,31.41
2023-05-28T11:32:58.180Z,30.89
2023-05-28T11:38:04.057Z,29.72
2023-05-28T11:43:06.604Z,29.49
2023-05-28T11:48:13.964Z,32.73
2023-05-28T11:53:16.609Z,31.76
2023-05-28T11:58:20.528Z,32.31
2023-05-28T12:03:26.518Z,34.03
2023-05-28T12:08:29.211Z,32.34
2023-05-28T12:13:33.929Z,30.65
2023-05-28T12:18:44.100Z,30.93
2023-05-28T12:23:48.502Z,32.73
2023-05-28T12:28:51.351Z,34.24
2023-05-28T12:33:54.369Z,33.93
2023-05-28T12:38:57.495Z,35.84
2023-05-28T12:44:00.222Z,36.65
2023-05-28T12:49:02.889Z,36.82
2023-05-28T12:54:06.005Z,36.61
2023-05-28T12:59:11.127Z,36.75
2023-05-28T13:04:13.727Z,37.24
2023-05-28T13:09:16.533Z,37.70
2023-05-28T13:14:19.162Z,37.24
2023-05-28T13:19:21.762Z,34.71
2023-05-28T13:24:26.946Z,35.41
2023-05-28T13:29:33.312Z,36.62
2023-05-28T13:34:36.225Z,37.10
2023-05-28T13:39:39.357Z,37.36
2023-05-28T13:44:41.840Z,35.84
2023-05-28T13:49:45.362Z,35.42
2023-05-28T13:54:48.022Z,36.07
2023-05-28T13:59:50.661Z,36.56
2023-05-28T14:04:53.450Z,34.96
2023-05-28T14:09:56.176Z,35.41
2023-05-28T14:14:58.951Z,35.74
2023-05-28T14:20:01.813Z,35.39
2023-05-28T14:25:04.927Z,35.44
2023-05-28T14:30:08.293Z,34.68
2023-05-28T14:35:11.237Z,34.45
2023-05-28T14:40:17.270Z,34.61
2023-05-28T14:45:20.671Z,34.74
2023-05-28T14:50:23.491Z,32.80
2023-05-28T14:55:26.026Z,33.41
2023-05-28T15:00:28.743Z,33.79
2023-05-28T15:05:31.542Z,33.94
2023-05-28T15:10:34.117Z,32.40
2023-05-28T15:15:36.818Z,30.90
2023-05-28T15:20:39.574Z,31.13
2023-05-28T15:25:42.328Z,31.64
2023-05-28T15:30:45.044Z,32.14
2023-05-28T15:35:47.950Z,32.22
2023-05-28T15:40:51.038Z,32.19
2023-05-28T15:45:54.266Z,31.87
2023-05-28T15:50:57.135Z,31.30
2023-05-28T15:55:59.960Z,30.82
2023-05-28T16:01:03.078Z,30.32
2023-05-28T16:06:06.122Z,29.61
2023-05-28T16:11:13.559Z,28.70
2023-05-28T16:16:17.391Z,28.13
2023-05-28T16:21:20.326Z,27.78
2023-05-28T16:26:25.214Z,27.71
2023-05-28T16:31:46.787Z,27.30
2023-05-28T16:36:58.571Z,26.80
2023-05-28T16:42:02.751Z,26.31
2023-05-28T16:47:07.227Z,26.01
2023-05-28T16:52:12.714Z,25.92
2023-05-28T16:57:34.080Z,25.72
2023-05-28T17:02:55.244Z,25.47
2023-05-28T17:08:16.708Z,25.12
2023-05-28T17:13:21.704Z,24.86
2023-05-28T17:18:24.313Z,24.54
2023-05-28T17:23:45.388Z,24.21
2023-05-28T17:28:51.248Z,23.90
2023-05-28T17:34:12.608Z,23.70
2023-05-28T17:39:33.714Z,23.47
2023-05-28T17:44:36.776Z,23.32
2023-05-28T17:49:57.671Z,23.18
2023-05-28T17:55:18.744Z,23.03
2023-05-28T18:00:23.328Z,22.88
2023-05-28T18:05:44.452Z,22.61
2023-05-28T18:11:05.476Z,22.55
2023-05-28T18:16:45.562Z,22.44
2023-05-28T18:22:07.541Z,22.35
2023-05-28T18:27:28.663Z,22.27
2023-05-28T18:32:50.687Z,22.14
2023-05-28T18:38:11.658Z,22.07
2023-05-28T18:43:35.167Z,22.05
2023-05-28T18:48:58.111Z,22.01
2023-05-28T18:54:43.868Z,21.96
2023-05-28T19:00:08.237Z,21.88
2023-05-28T19:05:28.936Z,21.82
2023-05-28T19:10:50.019Z,21.74
2023-05-28T19:16:11.971Z,21.67
2023-05-28T19:21:14.533Z,21.57
2023-05-28T19:26:36.541Z,21.49
2023-05-28T19:31:57.981Z,21.41
2023-05-28T19:37:19.876Z,21.13
2023-05-28T19:42:30.491Z,21.17
2023-05-28T19:47:51.547Z,21.09
2023-05-28T19:53:12.952Z,21.00
2023-05-28T19:58:18.053Z,20.96
2023-05-28T20:04:05.360Z,20.89
2023-05-28T20:09:27.084Z,20.85
2023-05-28T20:14:48.003Z,20.80
2023-05-28T20:19:54.129Z,20.77
2023-05-28T20:24:56.873Z,20.74
2023-05-28T20:29:59.541Z,20.70
2023-05-28T20:35:02.498Z,20.61
2023-05-28T20:40:07.023Z,20.59
2023-05-28T20:45:10.106Z,20.53
2023-05-28T20:50:12.897Z,20.45
2023-05-28T20:55:16.203Z,20.37
2023-05-28T21:00:21.216Z,20.28
2023-05-28T21:05:25.083Z,20.14
2023-05-28T21:10:31.472Z,20.14
2023-05-28T21:15:34.040Z,20.07
2023-05-28T21:20:36.691Z,19.99
2023-05-28T21:25:39.260Z,19.95
2023-05-28T21:30:42.048Z,19.71
2023-05-28T21:35:44.655Z,19.78
2023-05-28T21:40:48.933Z,19.74
2023-05-28T21:45:54.307Z,19.78
2023-05-28T21:50:58.000Z,19.78
2023-05-28T21:56:00.847Z,19.82
2023-05-28T22:01:03.407Z,19.80
2023-05-28T22:06:06.805Z,19.86
2023-05-28T22:11:09.440Z,19.77
2023-05-28T22:16:12.369Z,19.73
2023-05-28T22:21:15.224Z,19.66
2023-05-28T22:26:18.010Z,19.63
2023-05-28T22:31:20.803Z,19.58
2023-05-28T22:36:23.488Z,19.50
2023-05-28T22:41:27.174Z,19.40
2023-05-28T22:46:29.915Z,19.30
2023-05-28T22:51:33.260Z,19.24
2023-05-28T22:56:36.152Z,19.20
2023-05-28T23:01:38.841Z,19.12
2023-05-28T23:06:42.158Z,19.08
2023-05-28T23:11:44.763Z,19.03
2023-05-28T23:16:47.449Z,19.07
2023-05-28T23:21:50.131Z,19.10
2023-05-28T23:26:55.078Z,19.08
2023-05-28T23:31:58.410Z,19.01
2023-05-28T23:37:02.151Z,19.01
2023-05-28T23:42:05.255Z,18.99
2023-05-28T23:47:08.426Z,18.98
2023-05-28T23:52:10.998Z,18.98
2023-05-28T23:57:13.577Z,18.99
